createdAt,value
2018-03-31T00:01:29.697Z,10.93
2018-03-31T00:03:56.756Z,11.03
2018-03-31T00:06:23.803Z,11.03
2018-03-31T00:08:50.888Z,10.98
2018-03-31T00:11:17.952Z,10.59
2018-03-31T00:13:45.034Z,10.21
2018-03-31T00:16:12.085Z,10.31
2018-03-31T00:18:39.141Z,10.39
2018-03-31T00:21:06.229Z,10.30
2018-03-31T00:23:33.276Z,10.15
2018-03-31T00:26:00.548Z,9.94
2018-03-31T00:28:27.600Z,10.07
2018-03-31T00:30:54.647Z,10.16
2018-03-31T00:33:21.720Z,10.12
2018-03-31T00:35:48.781Z,10.14
2018-03-31T00:38:15.850Z,9.94
2018-03-31T00:40:42.909Z,10.01
2018-03-31T00:43:09.988Z,10.10
2018-03-31T00:45:37.057Z,9.99
2018-03-31T00:48:04.103Z,9.99
2018-03-31T00:50:31.177Z,9.96
2018-03-31T00:52:58.235Z,10.16
2018-03-31T00:55:25.381Z,9.87
2018-03-31T00:57:52.398Z,9.89
2018-03-31T01:00:19.444Z,9.81
2018-03-31T01:02:46.516Z,9.83
2018-03-31T01:05:13.565Z,9.83
2018-03-31T01:07:41.016Z,9.86
2018-03-31T01:10:08.268Z,9.85
2018-03-31T01:12:35.327Z,9.70
2018-03-31T01:15:02.405Z,9.58
2018-03-31T01:17:29.461Z,9.51
2018-03-31T01:19:56.557Z,9.54
2018-03-31T01:22:23.608Z,9.54
2018-03-31T01:24:51.168Z,9.39
2018-03-31T01:27:18.237Z,9.41
2018-03-31T01:29:45.366Z,9.59
2018-03-31T01:32:12.432Z,9.58
2018-03-31T01:34:39.503Z,9.64
2018-03-31T01:37:06.821Z,9.50
2018-03-31T01:39:33.921Z,9.48
2018-03-31T01:42:00.967Z,9.55
2018-03-31T01:44:28.040Z,9.50
2018-03-31T01:46:55.086Z,9.56
2018-03-31T01:49:22.358Z,9.60
2018-03-31T01:51:49.407Z,9.49
2018-03-31T01:54:16.522Z,9.42
2018-03-31T01:56:43.603Z,9.42
2018-03-31T01:59:10.658Z,9.41
2018-03-31T02:01:37.732Z,9.43
2018-03-31T02:04:04.873Z,9.44
2018-03-31T02:06:31.965Z,9.21
2018-03-31T02:08:59.007Z,9.34
2018-03-31T02:11:26.095Z,9.19
2018-03-31T02:13:53.164Z,9.18
2018-03-31T02:16:20.222Z,9.15
2018-03-31T02:18:47.288Z,9.13
2018-03-31T02:21:14.356Z,9.27
2018-03-31T02:23:41.441Z,9.26
2018-03-31T02:26:08.492Z,9.23
2018-03-31T02:28:35.560Z,9.02
2018-03-31T02:31:02.625Z,9.23
2018-03-31T02:33:29.669Z,9.29
2018-03-31T02:35:56.745Z,9.37
2018-03-31T02:38:23.803Z,9.20
2018-03-31T02:40:50.995Z,9.27
2018-03-31T02:43:18.042Z,9.21
2018-03-31T02:45:45.091Z,9.11
2018-03-31T02:48:12.167Z,9.15
2018-03-31T02:50:39.217Z,9.32
2018-03-31T02:53:06.350Z,9.28
2018-03-31T02:55:33.404Z,9.22
2018-03-31T02:58:00.750Z,9.14
2018-03-31T03:00:27.809Z,9.32
2018-03-31T03:02:54.856Z,9.26
2018-03-31T03:05:21.934Z,9.20
2018-03-31T03:07:48.988Z,9.27
2018-03-31T03:10:16.061Z,9.09
2018-03-31T03:12:43.136Z,9.07
2018-03-31T03:15:10.475Z,9.08
2018-03-31T03:17:37.791Z,9.23
2018-03-31T03:20:04.840Z,9.24
2018-03-31T03:22:31.915Z,9.37
2018-03-31T03:24:58.960Z,8.95
2018-03-31T03:27:26.036Z,8.90
2018-03-31T03:29:53.093Z,8.82
2018-03-31T03:32:20.323Z,8.85
2018-03-31T03:34:47.373Z,8.68
2018-03-31T03:37:14.438Z,8.77
2018-03-31T03:39:41.508Z,8.70
2018-03-31T03:42:08.574Z,8.73
2018-03-31T03:44:35.648Z,8.70
2018-03-31T03:47:02.708Z,8.67
2018-03-31T03:49:30.072Z,8.79
2018-03-31T03:51:57.085Z,8.90
2018-03-31T03:54:24.129Z,8.96
2018-03-31T03:56:51.205Z,8.96
2018-03-31T03:59:18.257Z,8.74
2018-03-31T04:01:45.329Z,8.79
2018-03-31T04:04:12.384Z,8.92
2018-03-31T04:06:39.692Z,8.62
2018-03-31T04:09:06.736Z,8.73
2018-03-31T04:11:33.782Z,8.83
2018-03-31T04:14:00.853Z,8.86
2018-03-31T04:16:27.894Z,8.94
2018-03-31T04:18:54.952Z,8.95
2018-03-31T04:21:21.995Z,8.97
2018-03-31T04:23:49.264Z,8.93
2018-03-31T04:26:16.307Z,8.71
2018-03-31T04:28:43.353Z,8.67
2018-03-31T04:31:10.429Z,8.80
2018-03-31T04:33:37.484Z,8.84
2018-03-31T04:36:04.550Z,8.76
2018-03-31T04:38:31.596Z,8.66
2018-03-31T04:40:58.796Z,8.55
2018-03-31T04:43:25.843Z,8.67
2018-03-31T04:45:52.884Z,8.74
2018-03-31T04:48:19.995Z,8.81
2018-03-31T04:50:47.036Z,8.60
2018-03-31T04:53:14.108Z,8.52
2018-03-31T04:55:41.157Z,8.54
2018-03-31T04:58:08.232Z,8.72
2018-03-31T05:00:35.284Z,8.77
2018-03-31T05:03:02.339Z,8.52
2018-03-31T05:05:29.439Z,8.49
2018-03-31T05:07:56.495Z,8.45
2018-03-31T05:10:23.570Z,8.42
2018-03-31T05:12:50.620Z,8.41
2018-03-31T05:15:17.979Z,8.43
2018-03-31T05:17:45.030Z,8.46
2018-03-31T05:20:12.088Z,8.39
2018-03-31T05:22:39.160Z,8.47
2018-03-31T05:25:06.209Z,8.52
2018-03-31T05:27:33.275Z,8.38
2018-03-31T05:30:00.325Z,8.24
2018-03-31T05:32:27.531Z,8.37
2018-03-31T05:34:54.598Z,8.38
2018-03-31T05:37:21.652Z,8.47
2018-03-31T05:39:48.733Z,8.43
2018-03-31T05:42:15.784Z,8.50
2018-03-31T05:44:42.859Z,8.42
2018-03-31T05:47:09.916Z,8.55
2018-03-31T05:49:37.051Z,8.40
2018-03-31T05:52:04.085Z,8.43
2018-03-31T05:54:31.135Z,8.42
2018-03-31T05:56:58.215Z,8.30
2018-03-31T05:59:25.322Z,8.40
2018-03-31T06:01:52.400Z,8.37
2018-03-31T06:04:19.455Z,8.37
2018-03-31T06:06:46.805Z,8.32
2018-03-31T06:09:13.851Z,8.37
2018-03-31T06:11:40.899Z,8.64
2018-03-31T06:14:07.976Z,8.68
2018-03-31T06:16:35.028Z,8.68
2018-03-31T06:19:02.101Z,8.68
2018-03-31T06:21:29.160Z,8.62
2018-03-31T06:23:56.236Z,8.46
2018-03-31T06:26:23.289Z,8.47
2018-03-31T06:28:50.351Z,8.39
2018-03-31T06:31:17.427Z,8.52
2018-03-31T06:33:44.488Z,8.53
2018-03-31T06:36:11.560Z,8.42
2018-03-31T06:38:38.617Z,8.62
2018-03-31T06:41:06.218Z,8.55
2018-03-31T06:43:33.263Z,8.60
2018-03-31T06:46:00.314Z,8.49
2018-03-31T06:48:27.385Z,8.54
2018-03-31T06:50:54.444Z,8.48
2018-03-31T06:53:21.513Z,8.56
2018-03-31T06:55:48.565Z,8.48
2018-03-31T06:58:15.675Z,8.52
2018-03-31T07:00:42.724Z,8.42
2018-03-31T07:03:09.783Z,8.45
2018-03-31T07:05:36.852Z,8.50
2018-03-31T07:08:03.901Z,8.52
2018-03-31T07:10:31.487Z,8.48
2018-03-31T07:12:58.544Z,8.48
2018-03-31T07:15:25.840Z,8.43
2018-03-31T07:17:52.850Z,8.54
2018-03-31T07:20:19.905Z,8.65
2018-03-31T07:22:46.978Z,8.38
2018-03-31T07:25:14.027Z,8.61
2018-03-31T07:27:41.110Z,8.59
2018-03-31T07:30:08.163Z,8.46
2018-03-31T07:32:35.428Z,8.70
2018-03-31T07:35:02.476Z,8.55
2018-03-31T07:37:29.523Z,8.57
2018-03-31T07:39:56.599Z,8.46
2018-03-31T07:42:23.656Z,8.52
2018-03-31T07:44:50.737Z,8.59
2018-03-31T07:47:17.807Z,8.46
2018-03-31T07:49:44.900Z,8.64
2018-03-31T07:52:11.958Z,8.64
2018-03-31T07:54:39.077Z,8.66
2018-03-31T07:57:06.153Z,8.72
2018-03-31T07:59:33.204Z,8.71
2018-03-31T08:02:00.273Z,8.69
2018-03-31T08:04:27.370Z,8.59
2018-03-31T08:06:54.612Z,8.76
2018-03-31T08:09:21.671Z,8.74
2018-03-31T08:11:48.723Z,8.86
2018-03-31T08:14:15.793Z,8.88
2018-03-31T08:16:42.900Z,8.93
2018-03-31T08:19:11.491Z,8.87
2018-03-31T08:21:38.543Z,8.78
2018-03-31T08:24:05.641Z,8.99
2018-03-31T08:26:32.697Z,9.15
2018-03-31T08:28:59.758Z,9.04
2018-03-31T08:31:26.832Z,9.05
2018-03-31T08:33:53.881Z,9.06
2018-03-31T08:36:20.956Z,8.72
2018-03-31T08:38:48.016Z,8.94
2018-03-31T08:41:15.541Z,8.91
2018-03-31T08:43:42.593Z,9.10
2018-03-31T08:46:09.644Z,8.87
2018-03-31T08:48:36.717Z,8.97
2018-03-31T08:51:03.765Z,8.97
2018-03-31T08:53:30.835Z,9.12
2018-03-31T08:55:57.892Z,9.26
2018-03-31T08:58:25.195Z,9.27
2018-03-31T09:00:52.243Z,9.51
2018-03-31T09:03:19.308Z,9.25
2018-03-31T09:05:46.380Z,9.60
2018-03-31T09:08:13.428Z,9.48
2018-03-31T09:10:40.496Z,9.27
2018-03-31T09:13:07.540Z,9.33
2018-03-31T09:15:34.601Z,9.64
2018-03-31T09:18:01.685Z,9.87
2018-03-31T09:20:28.745Z,9.73
2018-03-31T09:22:55.836Z,9.63
2018-03-31T09:25:22.892Z,9.50
2018-03-31T09:27:49.936Z,9.39
2018-03-31T09:30:17.003Z,9.45
2018-03-31T09:32:44.056Z,9.34
2018-03-31T09:35:11.312Z,9.79
2018-03-31T09:37:38.350Z,9.80
2018-03-31T09:40:05.416Z,9.50
2018-03-31T09:42:32.494Z,9.51
2018-03-31T09:44:59.550Z,9.52
2018-03-31T09:47:26.616Z,9.71
2018-03-31T09:49:53.676Z,9.77
2018-03-31T09:52:20.772Z,9.85
2018-03-31T09:54:47.811Z,9.68
2018-03-31T09:57:14.863Z,9.73
2018-03-31T09:59:41.933Z,9.69
2018-03-31T10:02:08.985Z,9.64
2018-03-31T10:04:36.061Z,9.68
2018-03-31T10:07:03.107Z,9.83
2018-03-31T10:09:30.185Z,9.87
2018-03-31T10:11:57.249Z,9.98
2018-03-31T10:14:24.295Z,9.87
2018-03-31T10:16:51.466Z,10.00
2018-03-31T10:19:18.531Z,9.96
2018-03-31T10:21:45.756Z,9.89
2018-03-31T10:24:12.807Z,9.86
2018-03-31T10:26:39.895Z,10.07
2018-03-31T10:29:06.955Z,9.87
2018-03-31T10:31:34.012Z,9.75
2018-03-31T10:34:01.088Z,9.98
2018-03-31T10:36:28.144Z,9.89
2018-03-31T10:38:55.234Z,9.94
2018-03-31T10:41:22.284Z,10.12
2018-03-31T10:43:49.359Z,10.16
2018-03-31T10:46:16.413Z,10.20
2018-03-31T10:48:43.474Z,10.04
2018-03-31T10:51:10.544Z,10.23
2018-03-31T10:53:37.595Z,10.13
2018-03-31T10:56:04.665Z,10.23
2018-03-31T10:58:31.716Z,10.26
2018-03-31T11:00:58.812Z,10.44
2018-03-31T11:03:25.873Z,10.30
2018-03-31T11:05:52.928Z,10.26
2018-03-31T11:08:20.008Z,10.34
2018-03-31T11:10:47.060Z,10.43
2018-03-31T11:13:14.128Z,10.09
2018-03-31T11:15:41.177Z,10.14
2018-03-31T11:18:09.185Z,10.40
2018-03-31T11:20:36.239Z,10.67
2018-03-31T11:23:03.296Z,10.47
2018-03-31T11:25:30.364Z,10.32
2018-03-31T11:27:57.422Z,10.44
2018-03-31T11:30:24.495Z,10.48
2018-03-31T11:32:51.793Z,10.69
2018-03-31T11:35:18.900Z,10.83
2018-03-31T11:37:45.960Z,10.84
2018-03-31T11:40:13.003Z,11.00
2018-03-31T11:42:40.068Z,11.01
2018-03-31T11:45:07.116Z,11.20
2018-03-31T11:47:34.194Z,11.15
2018-03-31T11:50:01.298Z,11.17
2018-03-31T11:52:28.385Z,11.31
2018-03-31T11:54:55.446Z,11.22
2018-03-31T11:57:22.505Z,11.01
2018-03-31T11:59:49.596Z,11.30
2018-03-31T12:02:16.648Z,11.27
2018-03-31T12:04:43.728Z,11.22
2018-03-31T12:07:10.896Z,11.15
2018-03-31T12:09:38.116Z,11.33
2018-03-31T12:12:05.167Z,11.48
2018-03-31T12:14:32.223Z,11.57
2018-03-31T12:16:59.292Z,11.26
2018-03-31T12:19:26.337Z,11.42
2018-03-31T12:21:53.416Z,11.59
2018-03-31T12:24:20.464Z,11.56
2018-03-31T12:26:47.751Z,11.73
2018-03-31T12:29:14.817Z,11.82
2018-03-31T12:31:41.866Z,12.13
2018-03-31T12:34:09.163Z,12.16
2018-03-31T12:36:36.236Z,12.05
2018-03-31T12:39:03.316Z,11.81
2018-03-31T12:41:30.429Z,12.26
2018-03-31T12:43:57.580Z,12.34
2018-03-31T12:46:24.634Z,12.39
2018-03-31T12:48:51.684Z,12.07
2018-03-31T12:51:18.761Z,12.61
2018-03-31T12:53:45.816Z,12.85
2018-03-31T12:56:12.892Z,12.19
2018-03-31T12:58:39.952Z,12.10
2018-03-31T13:01:07.021Z,12.06
2018-03-31T13:03:34.076Z,11.78
2018-03-31T13:06:01.128Z,11.87
2018-03-31T13:08:28.208Z,11.45
2018-03-31T13:10:55.260Z,11.02
2018-03-31T13:13:22.357Z,10.71
2018-03-31T13:15:49.410Z,10.51
2018-03-31T13:18:16.779Z,10.18
2018-03-31T13:20:43.847Z,10.24
2018-03-31T13:23:10.896Z,10.07
2018-03-31T13:25:37.967Z,9.91
2018-03-31T13:28:05.024Z,9.76
2018-03-31T13:30:32.100Z,9.94
2018-03-31T13:32:59.151Z,10.06
2018-03-31T13:35:26.244Z,10.26
2018-03-31T13:37:53.377Z,10.43
2018-03-31T13:40:20.425Z,10.57
2018-03-31T13:42:47.513Z,10.80
2018-03-31T13:45:14.568Z,10.72
2018-03-31T13:47:41.642Z,10.82
2018-03-31T13:50:08.688Z,10.85
2018-03-31T13:52:35.954Z,11.08
2018-03-31T13:55:03.039Z,11.88
2018-03-31T13:57:30.096Z,13.17
2018-03-31T13:59:57.177Z,15.24
2018-03-31T14:02:24.256Z,16.63
2018-03-31T14:04:51.813Z,15.09
2018-03-31T14:07:18.867Z,14.63
2018-03-31T14:09:45.917Z,13.26
2018-03-31T14:12:13.067Z,12.57
2018-03-31T14:14:40.123Z,12.27
2018-03-31T14:17:07.212Z,11.81
2018-03-31T14:19:34.258Z,11.83
2018-03-31T14:22:01.312Z,11.64
2018-03-31T14:24:28.385Z,11.53
2018-03-31T14:26:55.438Z,11.60
2018-03-31T14:29:22.611Z,11.65
2018-03-31T14:31:49.661Z,11.45
2018-03-31T14:34:16.744Z,11.60
2018-03-31T14:36:43.819Z,11.55
2018-03-31T14:39:10.877Z,11.70
2018-03-31T14:41:37.950Z,11.64
2018-03-31T14:44:04.996Z,11.65
2018-03-31T14:46:32.348Z,11.19
2018-03-31T14:48:59.455Z,11.23
2018-03-31T14:51:26.492Z,11.17
2018-03-31T14:53:53.576Z,11.16
2018-03-31T14:56:20.654Z,11.52
2018-03-31T14:58:47.774Z,11.07
2018-03-31T15:01:14.839Z,11.02
2018-03-31T15:03:42.188Z,11.16
2018-03-31T15:06:09.244Z,10.97
2018-03-31T15:08:36.295Z,11.05
2018-03-31T15:11:03.366Z,10.89
2018-03-31T15:13:30.424Z,10.76
2018-03-31T15:15:57.541Z,10.79
2018-03-31T15:18:24.593Z,10.79
2018-03-31T15:20:51.811Z,10.71
2018-03-31T15:23:18.869Z,10.68
2018-03-31T15:25:45.919Z,10.63
2018-03-31T15:28:12.999Z,10.62
2018-03-31T15:30:40.057Z,10.53
2018-03-31T15:33:07.129Z,10.50
2018-03-31T15:35:34.190Z,10.56
2018-03-31T15:38:01.292Z,10.56
2018-03-31T15:40:28.345Z,10.59
2018-03-31T15:42:55.401Z,10.48
2018-03-31T15:45:24.132Z,10.57
2018-03-31T15:47:51.199Z,10.62
2018-03-31T15:50:18.276Z,10.72
2018-03-31T15:52:45.334Z,10.49
2018-03-31T15:55:12.922Z,10.67
2018-03-31T15:57:40.017Z,10.67
2018-03-31T16:00:07.066Z,10.77
2018-03-31T16:02:34.151Z,10.85
2018-03-31T16:05:01.213Z,10.86
2018-03-31T16:07:28.295Z,10.93
2018-03-31T16:09:55.339Z,10.93
2018-03-31T16:12:22.419Z,11.06
2018-03-31T16:14:49.516Z,11.03
2018-03-31T16:17:16.974Z,10.99
2018-03-31T16:19:44.051Z,10.78
2018-03-31T16:22:11.099Z,10.95
2018-03-31T16:24:38.179Z,11.00
2018-03-31T16:27:05.228Z,11.03
2018-03-31T16:29:32.656Z,11.08
2018-03-31T16:31:59.717Z,10.82
2018-03-31T16:34:26.765Z,10.72
2018-03-31T16:36:53.909Z,10.73
2018-03-31T16:39:20.959Z,10.88
2018-03-31T16:41:48.037Z,10.56
2018-03-31T16:44:15.089Z,10.55
2018-03-31T16:46:42.521Z,10.37
2018-03-31T16:49:09.597Z,10.27
2018-03-31T16:51:36.648Z,10.25
2018-03-31T16:54:03.952Z,10.24
2018-03-31T16:56:31.000Z,10.16
2018-03-31T16:58:58.071Z,10.14
2018-03-31T17:01:25.137Z,10.10
2018-03-31T17:03:52.373Z,10.03
2018-03-31T17:06:19.427Z,10.05
2018-03-31T17:08:46.509Z,9.98
2018-03-31T17:11:13.580Z,9.90
2018-03-31T17:13:40.632Z,9.93
2018-03-31T17:16:07.702Z,10.12
2018-03-31T17:18:34.761Z,10.11
2018-03-31T17:21:01.868Z,10.21
2018-03-31T17:23:28.929Z,10.24
2018-03-31T17:25:56.576Z,10.11
2018-03-31T17:28:23.653Z,10.11
2018-03-31T17:30:50.696Z,10.09
2018-03-31T17:33:17.776Z,10.01
2018-03-31T17:35:44.829Z,9.99
2018-03-31T17:38:11.877Z,9.94
2018-03-31T17:40:38.958Z,10.07
2018-03-31T17:43:06.006Z,9.93
2018-03-31T17:45:33.300Z,10.05
2018-03-31T17:48:00.364Z,9.95
2018-03-31T17:50:27.419Z,10.04
2018-03-31T17:52:54.487Z,9.86
2018-03-31T17:55:21.561Z,9.85
2018-03-31T17:57:48.732Z,9.72
2018-03-31T18:00:15.801Z,9.96
2018-03-31T18:02:43.132Z,9.92
2018-03-31T18:05:10.251Z,9.86
2018-03-31T18:07:37.356Z,9.88
2018-03-31T18:10:04.483Z,9.55
2018-03-31T18:12:31.601Z,9.59
2018-03-31T18:14:58.713Z,9.64
2018-03-31T18:17:25.762Z,9.63
2018-03-31T18:19:52.826Z,9.61
2018-03-31T18:22:20.013Z,9.53
2018-03-31T18:24:47.079Z,10.00
2018-03-31T18:27:14.150Z,9.70
2018-03-31T18:29:41.211Z,9.77
2018-03-31T18:32:08.429Z,9.84
2018-03-31T18:34:35.497Z,9.75
2018-03-31T18:37:02.561Z,9.54
2018-03-31T18:39:29.625Z,9.80
2018-03-31T18:41:56.670Z,9.66
2018-03-31T18:44:23.758Z,9.71
2018-03-31T18:46:50.813Z,9.53
2018-03-31T18:49:17.929Z,9.54
2018-03-31T18:51:44.993Z,9.59
2018-03-31T18:54:12.044Z,9.38
2018-03-31T18:56:39.109Z,9.35
2018-03-31T18:59:06.160Z,9.29
2018-03-31T19:01:33.260Z,9.26
2018-03-31T19:04:00.314Z,9.22
2018-03-31T19:06:27.512Z,9.21
2018-03-31T19:08:54.571Z,9.14
2018-03-31T19:11:21.630Z,9.13
2018-03-31T19:13:48.849Z,9.11
2018-03-31T19:16:15.908Z,9.07
2018-03-31T19:18:42.985Z,9.05
2018-03-31T19:21:10.039Z,8.91
2018-03-31T19:23:37.127Z,8.98
2018-03-31T19:26:04.172Z,8.76
2018-03-31T19:28:31.244Z,8.63
2018-03-31T19:30:58.301Z,8.60
2018-03-31T19:33:25.372Z,8.65
2018-03-31T19:35:57.912Z,8.66
2018-03-31T19:38:25.005Z,8.66
2018-03-31T19:40:52.059Z,8.61
2018-03-31T19:43:19.134Z,8.63
2018-03-31T19:45:46.209Z,8.65
2018-03-31T19:48:13.262Z,8.62
2018-03-31T19:50:40.347Z,8.53
2018-03-31T19:53:07.684Z,8.55
2018-03-31T19:55:34.782Z,8.63
2018-03-31T19:58:01.839Z,8.63
2018-03-31T20:00:28.897Z,8.62
2018-03-31T20:02:55.979Z,8.62
2018-03-31T20:05:23.027Z,8.62
2018-03-31T20:07:50.098Z,8.66
2018-03-31T20:10:17.177Z,8.68
2018-03-31T20:12:44.457Z,8.73
2018-03-31T20:15:11.510Z,8.69
2018-03-31T20:17:38.565Z,8.71
2018-03-31T20:20:05.648Z,8.63
2018-03-31T20:22:32.695Z,8.56
2018-03-31T20:24:59.777Z,8.48
2018-03-31T20:27:26.837Z,8.44
2018-03-31T20:29:54.316Z,8.41
2018-03-31T20:32:21.384Z,8.31
2018-03-31T20:34:48.438Z,8.22
2018-03-31T20:37:15.516Z,8.14
2018-03-31T20:39:42.571Z,8.04
2018-03-31T20:42:09.648Z,7.84
2018-03-31T20:44:36.708Z,7.81
2018-03-31T20:47:03.797Z,7.81
2018-03-31T20:49:30.850Z,7.86
2018-03-31T20:51:57.910Z,7.83
2018-03-31T20:54:24.993Z,7.76
2018-03-31T20:56:52.049Z,7.75
2018-03-31T20:59:19.124Z,7.69
2018-03-31T21:01:46.249Z,7.70
2018-03-31T21:04:13.342Z,7.65
2018-03-31T21:06:40.392Z,7.57
2018-03-31T21:09:07.453Z,7.57
2018-03-31T21:11:34.544Z,7.56
2018-03-31T21:14:01.609Z,7.55
2018-03-31T21:16:28.740Z,7.55
2018-03-31T21:18:55.791Z,7.52
2018-03-31T21:21:22.875Z,7.50
2018-03-31T21:23:49.934Z,7.46
2018-03-31T21:26:17.002Z,7.33
2018-03-31T21:28:44.183Z,7.33
2018-03-31T21:31:12.255Z,7.32
2018-03-31T21:33:39.342Z,7.22
2018-03-31T21:36:06.398Z,7.17
2018-03-31T21:38:33.800Z,7.15
2018-03-31T21:41:00.860Z,7.17
2018-03-31T21:43:27.909Z,7.14
2018-03-31T21:45:54.982Z,7.20
2018-03-31T21:48:22.052Z,7.19
2018-03-31T21:50:49.134Z,7.17
2018-03-31T21:53:16.428Z,7.17
2018-03-31T21:55:43.757Z,7.16
2018-03-31T21:58:10.837Z,7.14
2018-03-31T22:00:37.893Z,7.13
2018-03-31T22:03:04.964Z,7.07
2018-03-31T22:05:32.024Z,7.09
2018-03-31T22:07:59.103Z,7.07
2018-03-31T22:10:26.155Z,7.13
2018-03-31T22:12:53.439Z,7.12
2018-03-31T22:15:25.892Z,7.11
2018-03-31T22:17:52.968Z,7.05
2018-03-31T22:20:20.051Z,7.00
2018-03-31T22:22:47.108Z,6.95
2018-03-31T22:25:14.194Z,6.84
2018-03-31T22:27:41.323Z,6.89
2018-03-31T22:30:08.395Z,6.87
2018-03-31T22:32:35.736Z,6.91
2018-03-31T22:35:02.969Z,6.93
2018-03-31T22:37:30.033Z,6.90
2018-03-31T22:39:57.091Z,6.84
2018-03-31T22:42:24.165Z,6.87
2018-03-31T22:44:51.220Z,6.98
2018-03-31T22:47:18.301Z,7.03
2018-03-31T22:49:45.352Z,7.13
2018-03-31T22:52:12.580Z,7.09
2018-03-31T22:54:39.636Z,7.10
2018-03-31T22:57:06.691Z,7.07
2018-03-31T22:59:33.780Z,7.12
2018-03-31T23:02:00.832Z,7.12
2018-03-31T23:04:27.946Z,7.16
2018-03-31T23:06:55.013Z,7.18
2018-03-31T23:09:22.399Z,7.12
2018-03-31T23:11:49.512Z,7.09
2018-03-31T23:14:16.574Z,7.13
2018-03-31T23:16:43.651Z,7.10
2018-03-31T23:19:10.715Z,7.15
2018-03-31T23:21:37.798Z,7.10
2018-03-31T23:24:05.206Z,7.12
2018-03-31T23:26:32.289Z,7.14
2018-03-31T23:28:59.377Z,7.05
2018-03-31T23:31:26.439Z,7.06
2018-03-31T23:33:53.511Z,6.99
2018-03-31T23:36:20.560Z,6.97
2018-03-31T23:38:47.858Z,6.87
2018-03-31T23:41:14.928Z,6.77
2018-03-31T23:43:41.996Z,6.70
2018-03-31T23:46:09.100Z,6.70
2018-03-31T23:48:36.164Z,6.66
2018-03-31T23:51:03.456Z,6.70
2018-03-31T23:53:30.523Z,6.71
2018-03-31T23:55:58.928Z,6.73
2018-03-31T23:58:26.006Z,6.71
